Time;durP1;ratioP1;P1;durP2;ratioP2;P2;SDS_P1;SDS_P2;PMS_P1;PMS_P2;Temp;Humidity;BMP_temperature;BMP_pressure;BME280_temperature;BME280_humidity;BME280_pressure;Samples;Min_cycle;Max_cycle;Signal;HPM_P1;HPM_P2
2023/09/18 00:00:09;;;;;;;;;;;24.30;55.50;;;;;;5056017;28;19925;-60
2023/09/18 00:02:36;;;;;;;;;;;24.30;55.50;;;;;;5055986;28;20377;-59
2023/09/18 00:05:03;;;;;;;;;;;24.30;55.50;;;;;;5055015;28;19936;-60
2023/09/18 00:07:30;;;;;;;;;;;24.30;56.10;;;;;;5055885;28;19999;-59
2023/09/18 00:09:57;;;;;;;;;;;24.30;55.50;;;;;;5055670;28;19925;-59
2023/09/18 00:12:24;;;;;;;;;;;24.30;55.50;;;;;;5053823;28;19979;-59
2023/09/18 00:14:51;;;;;;;;;;;24.30;55.60;;;;;;5056089;28;19929;-59
2023/09/18 00:17:19;;;;;;;;;;;24.30;55.60;;;;;;5055856;28;19975;-59
2023/09/18 00:19:46;;;;;;;;;;;24.30;55.50;;;;;;5055578;28;19978;-59
2023/09/18 00:22:13;;;;;;;;;;;24.30;55.50;;;;;;5055737;28;19982;-60
2023/09/18 00:24:39;;;;;;;;;;;24.30;55.50;;;;;;5055573;28;19984;-59
2023/09/18 00:27:06;;;;;;;;;;;24.30;55.40;;;;;;5055720;28;19931;-60
2023/09/18 00:29:33;;;;;;;;;;;24.30;55.40;;;;;;5055425;28;19932;-59
2023/09/18 00:32:00;;;;;;;;;;;24.30;55.40;;;;;;5055624;28;19986;-59
2023/09/18 00:34:29;;;;;;;;;;;24.30;55.40;;;;;;5055708;28;20014;-60
2023/09/18 00:36:56;;;;;;;;;;;24.30;55.40;;;;;;5055264;28;19931;-59
2023/09/18 00:39:22;;;;;;;;;;;24.30;55.30;;;;;;5055492;28;20349;-59
2023/09/18 00:41:53;;;;;;;;;;;24.30;55.30;;;;;;5055195;28;19925;-59
2023/09/18 00:44:21;;;;;;;;;;;24.30;55.30;;;;;;5055441;28;19924;-60
2023/09/18 00:46:49;;;;;;;;;;;24.30;55.40;;;;;;5053991;28;19999;-59
2023/09/18 00:49:16;;;;;;;;;;;24.30;55.40;;;;;;5055005;28;19972;-60
2023/09/18 00:51:44;;;;;;;;;;;24.30;55.40;;;;;;5055278;28;19925;-59
2023/09/18 00:54:11;;;;;;;;;;;24.30;55.40;;;;;;5054897;28;19925;-61
2023/09/18 00:56:38;;;;;;;;;;;24.30;55.40;;;;;;5054822;28;19925;-59
2023/09/18 00:59:05;;;;;;;;;;;24.30;55.50;;;;;;5055004;28;20019;-59
2023/09/18 01:01:32;;;;;;;;;;;24.30;55.50;;;;;;5055049;28;20289;-59
2023/09/18 01:03:59;;;;;;;;;;;24.30;55.50;;;;;;5054778;28;19925;-59
2023/09/18 01:06:30;;;;;;;;;;;24.30;55.50;;;;;;5054684;28;20353;-59
2023/09/18 01:08:59;;;;;;;;;;;24.30;55.50;;;;;;5054828;28;19951;-59
2023/09/18 01:11:31;;;;;;;;;;;24.30;55.50;;;;;;5054645;28;20428;-59
2023/09/18 01:14:18;;;;;;;;;;;24.30;55.50;;;;;;5054949;28;19924;-59
2023/09/18 01:16:50;;;;;;;;;;;24.30;55.50;;;;;;5054253;28;19964;-59
2023/09/18 01:19:33;;;;;;;;;;;24.30;55.50;;;;;;5054875;28;20377;-59
2023/09/18 01:22:00;;;;;;;;;;;24.30;55.50;;;;;;5054702;28;19986;-59
2023/09/18 01:24:27;;;;;;;;;;;24.20;55.50;;;;;;5054319;28;20027;-59
2023/09/18 01:26:57;;;;;;;;;;;24.20;55.40;;;;;;5054565;28;19925;-59
2023/09/18 01:29:24;;;;;;;;;;;24.20;55.40;;;;;;5054330;28;19968;-60
2023/09/18 01:31:51;;;;;;;;;;;24.20;55.50;;;;;;5054142;28;19925;-59
2023/09/18 01:34:20;;;;;;;;;;;24.20;55.40;;;;;;5053309;28;19925;-60
2023/09/18 01:36:47;;;;;;;;;;;24.20;55.50;;;;;;5053836;28;19964;-59
2023/09/18 01:39:14;;;;;;;;;;;24.20;55.40;;;;;;5054015;28;20393;-59
2023/09/18 01:41:42;;;;;;;;;;;24.30;55.50;;;;;;5054051;28;20338;-59
2023/09/18 01:44:09;;;;;;;;;;;24.30;55.50;;;;;;5054063;28;19929;-59
2023/09/18 01:46:36;;;;;;;;;;;24.30;55.40;;;;;;5053097;28;19933;-59
2023/09/18 01:49:05;;;;;;;;;;;24.30;55.40;;;;;;5053629;28;20209;-59
2023/09/18 01:51:32;;;;;;;;;;;24.30;55.40;;;;;;5053037;28;20349;-59
2023/09/18 01:54:00;;;;;;;;;;;24.30;55.30;;;;;;5053946;28;19924;-59
2023/09/18 01:56:27;;;;;;;;;;;24.30;55.30;;;;;;5053710;28;19928;-59
2023/09/18 01:58:54;;;;;;;;;;;24.30;55.30;;;;;;5053837;28;19929;-59
2023/09/18 02:01:21;;;;;;;;;;;24.30;55.30;;;;;;5053975;28;20304;-61
2023/09/18 02:03:49;;;;;;;;;;;24.30;55.30;;;;;;5054053;28;19932;-59
2023/09/18 02:06:36;;;;;;;;;;;24.30;55.30;;;;;;5052874;28;19925;-59
2023/09/18 02:09:09;;;;;;;;;;;24.30;55.30;;;;;;5053541;28;19924;-59
2023/09/18 02:11:38;;;;;;;;;;;24.30;55.40;;;;;;5053698;28;20396;-59
2023/09/18 02:14:05;;;;;;;;;;;24.30;55.40;;;;;;5052747;28;19924;-59
2023/09/18 02:16:36;;;;;;;;;;;24.30;55.40;;;;;;5053429;28;19931;-60
2023/09/18 02:19:03;;;;;;;;;;;24.30;55.40;;;;;;5053825;28;19931;-59
2023/09/18 02:21:31;;;;;;;;;;;24.30;55.40;;;;;;5053738;28;19929;-59
2023/09/18 02:23:58;;;;;;;;;;;24.20;55.40;;;;;;5053581;28;19925;-59
2023/09/18 02:26:25;;;;;;;;;;;24.20;55.40;;;;;;5053746;28;19988;-60
2023/09/18 02:28:58;;;;;;;;;;;24.20;55.40;;;;;;5036719;28;20015;-59
2023/09/18 02:31:26;;;;;;;;;;;24.30;55.50;;;;;;5053695;28;19929;-59
2023/09/18 02:33:52;;;;;;;;;;;24.20;55.40;;;;;;5054476;28;20356;-59
2023/09/18 02:36:19;;;;;;;;;;;24.20;55.40;;;;;;5059903;28;19951;-59
2023/09/18 02:38:46;;;;;;;;;;;24.20;55.40;;;;;;5042402;28;20373;-59
2023/09/18 02:41:13;;;;;;;;;;;24.20;55.40;;;;;;5059931;28;19975;-59
2023/09/18 02:43:40;;;;;;;;;;;24.20;55.40;;;;;;5060262;28;19925;-59
2023/09/18 02:46:08;;;;;;;;;;;24.20;55.50;;;;;;5059886;28;19925;-59
2023/09/18 02:48:35;;;;;;;;;;;24.20;55.40;;;;;;5060108;28;19971;-59
2023/09/18 02:51:02;;;;;;;;;;;24.20;55.50;;;;;;5059873;28;19925;-59
2023/09/18 02:53:29;;;;;;;;;;;24.20;55.40;;;;;;5059955;28;20381;-61
2023/09/18 02:55:57;;;;;;;;;;;24.20;55.40;;;;;;5059999;28;19932;-59
2023/09/18 02:58:25;;;;;;;;;;;24.20;55.40;;;;;;5059885;28;19928;-59
2023/09/18 03:00:55;;;;;;;;;;;24.20;55.40;;;;;;5059709;28;19951;-59
2023/09/18 03:03:22;;;;;;;;;;;24.20;55.40;;;;;;5060095;28;19924;-59
2023/09/18 03:05:49;;;;;;;;;;;24.20;55.30;;;;;;5059627;28;19928;-59
2023/09/18 03:08:16;;;;;;;;;;;24.30;55.40;;;;;;5059799;28;19932;-59
2023/09/18 03:10:44;;;;;;;;;;;24.30;55.30;;;;;;5059842;28;19924;-59
2023/09/18 03:13:11;;;;;;;;;;;24.30;55.30;;;;;;5058542;28;20031;-59
2023/09/18 03:15:38;;;;;;;;;;;24.30;55.30;;;;;;5060133;28;20331;-60
2023/09/18 03:18:06;;;;;;;;;;;24.30;55.30;;;;;;5059592;28;19924;-59
2023/09/18 03:20:34;;;;;;;;;;;24.30;55.30;;;;;;5058584;28;19980;-61
2023/09/18 03:23:01;;;;;;;;;;;24.30;55.30;;;;;;5058806;28;19932;-59
2023/09/18 03:25:29;;;;;;;;;;;24.30;55.30;;;;;;5059737;28;19925;-59
2023/09/18 03:28:15;;;;;;;;;;;24.30;55.30;;;;;;5059604;28;19933;-59
2023/09/18 03:30:42;;;;;;;;;;;24.30;55.30;;;;;;5059885;28;20015;-60
2023/09/18 03:33:08;;;;;;;;;;;24.20;55.30;;;;;;5041649;28;20028;-59
2023/09/18 03:35:45;;;;;;;;;;;24.30;55.40;;;;;;5059814;28;19924;-59
2023/09/18 03:38:12;;;;;;;;;;;24.20;55.40;;;;;;5059713;28;19925;-59
2023/09/18 03:40:39;;;;;;;;;;;24.20;55.40;;;;;;5059655;28;19931;-60
2023/09/18 03:43:07;;;;;;;;;;;24.20;55.90;;;;;;5058597;28;19924;-59
2023/09/18 03:45:34;;;;;;;;;;;24.20;55.40;;;;;;5058099;28;20415;-59
2023/09/18 03:48:01;;;;;;;;;;;24.20;55.40;;;;;;5056011;28;19925;-59
2023/09/18 03:50:28;;;;;;;;;;;24.20;55.40;;;;;;5056321;28;19978;-59
2023/09/18 03:52:55;;;;;;;;;;;24.20;55.40;;;;;;5056554;28;19925;-59
2023/09/18 03:55:22;;;;;;;;;;;24.20;55.40;;;;;;5056409;28;20417;-59
2023/09/18 03:57:49;;;;;;;;;;;24.20;55.40;;;;;;5056357;28;20011;-59
2023/09/18 04:00:16;;;;;;;;;;;24.20;55.40;;;;;;5055968;28;19929;-59
2023/09/18 04:02:43;;;;;;;;;;;24.20;55.40;;;;;;5055801;28;20385;-60
2023/09/18 04:05:10;;;;;;;;;;;24.20;55.40;;;;;;5056114;28;19924;-59
2023/09/18 04:07:37;;;;;;;;;;;24.20;55.40;;;;;;5055937;28;20377;-59
2023/09/18 04:10:05;;;;;;;;;;;24.20;55.40;;;;;;5056098;28;19951;-60
2023/09/18 04:12:32;;;;;;;;;;;24.20;56.00;;;;;;5056041;28;20032;-59
2023/09/18 04:14:59;;;;;;;;;;;24.20;55.40;;;;;;5055653;28;20023;-59
2023/09/18 04:17:26;;;;;;;;;;;24.20;55.40;;;;;;5055432;28;19931;-59
2023/09/18 04:19:54;;;;;;;;;;;24.20;55.40;;;;;;5055290;28;19971;-59
2023/09/18 04:22:21;;;;;;;;;;;24.20;55.40;;;;;;5055491;28;20431;-59
2023/09/18 04:24:48;;;;;;;;;;;24.20;55.40;;;;;;5055594;28;19978;-59
2023/09/18 04:27:15;;;;;;;;;;;24.20;55.30;;;;;;5055766;28;20023;-59
2023/09/18 04:29:42;;;;;;;;;;;24.20;55.30;;;;;;5055318;28;19924;-59
2023/09/18 04:32:09;;;;;;;;;;;24.20;55.20;;;;;;5054167;28;19924;-60
2023/09/18 04:34:36;;;;;;;;;;;24.30;55.20;;;;;;5055630;28;19929;-59
2023/09/18 04:37:03;;;;;;;;;;;24.20;55.20;;;;;;5055376;28;19925;-59
2023/09/18 04:39:33;;;;;;;;;;;24.20;55.20;;;;;;5055053;28;20442;-59
2023/09/18 04:42:03;;;;;;;;;;;24.10;55.20;;;;;;5062424;28;19934;-59
2023/09/18 04:44:30;;;;;;;;;;;24.00;55.30;;;;;;5055250;28;20019;-60
2023/09/18 04:46:58;;;;;;;;;;;23.80;55.50;;;;;;5055193;28;20433;-60
2023/09/18 04:49:25;;;;;;;;;;;23.60;55.00;;;;;;5042759;28;19948;-60
2023/09/18 04:51:52;;;;;;;;;;;23.30;53.40;;;;;;5054927;28;20381;-60
2023/09/18 04:54:19;;;;;;;;;;;23.00;52.10;;;;;;5055226;28;20407;-60
2023/09/18 04:56:46;;;;;;;;;;;22.70;51.50;;;;;;5054696;28;19984;-60
2023/09/18 04:59:13;;;;;;;;;;;22.50;51.30;;;;;;5087028;28;19951;-60
2023/09/18 05:01:40;;;;;;;;;;;22.20;51.30;;;;;;5054718;28;19925;-60
2023/09/18 05:04:06;;;;;;;;;;;21.90;51.50;;;;;;5054028;28;19980;-60
2023/09/18 05:06:33;;;;;;;;;;;21.60;51.60;;;;;;5054499;28;19924;-59
2023/09/18 05:09:00;;;;;;;;;;;21.30;51.60;;;;;;5054417;28;19970;-60
2023/09/18 05:11:27;;;;;;;;;;;20.90;52.90;;;;;;5054652;28;20309;-59
2023/09/18 05:13:54;;;;;;;;;;;20.70;53.10;;;;;;5054773;28;19925;-60
2023/09/18 05:16:21;;;;;;;;;;;20.50;53.00;;;;;;5054505;28;19973;-59
2023/09/18 05:18:48;;;;;;;;;;;20.40;53.00;;;;;;5052579;28;19925;-60
2023/09/18 05:21:16;;;;;;;;;;;20.20;53.60;;;;;;5044386;28;19999;-67
2023/09/18 05:23:43;;;;;;;;;;;20.00;54.90;;;;;;5044001;28;19929;-63
2023/09/18 05:26:11;;;;;;;;;;;19.80;52.30;;;;;;5044677;28;20058;-61
2023/09/18 05:28:38;;;;;;;;;;;19.70;54.70;;;;;;5043673;28;19932;-61
2023/09/18 05:31:05;;;;;;;;;;;19.60;54.70;;;;;;5042334;28;19940;-61
2023/09/18 05:33:32;;;;;;;;;;;19.50;51.90;;;;;;5041157;28;19983;-60
2023/09/18 05:36:00;;;;;;;;;;;19.40;53.20;;;;;;5045231;28;19932;-61
2023/09/18 05:38:27;;;;;;;;;;;19.30;54.20;;;;;;5042315;28;20014;-61
2023/09/18 05:40:54;;;;;;;;;;;19.30;53.30;;;;;;5045282;28;19933;-65
2023/09/18 05:43:22;;;;;;;;;;;19.30;53.10;;;;;;5044906;28;19939;-63
2023/09/18 05:45:49;;;;;;;;;;;19.20;54.30;;;;;;5044574;28;20328;-64
2023/09/18 05:48:16;;;;;;;;;;;19.20;53.70;;;;;;5040567;28;20331;-64
2023/09/18 05:50:44;;;;;;;;;;;19.20;53.30;;;;;;5033297;28;19933;-63
2023/09/18 05:53:11;;;;;;;;;;;19.10;54.10;;;;;;5037355;28;20027;-61
2023/09/18 05:55:38;;;;;;;;;;;19.10;53.80;;;;;;5036763;28;19924;-63
2023/09/18 05:58:06;;;;;;;;;;;19.10;52.80;;;;;;5041712;28;19925;-61
2023/09/18 06:00:33;;;;;;;;;;;19.00;53.00;;;;;;5040375;28;19979;-61
2023/09/18 06:03:01;;;;;;;;;;;19.00;54.10;;;;;;5038182;28;19925;-63
2023/09/18 06:05:30;;;;;;;;;;;18.90;53.90;;;;;;5034259;28;19933;-62
2023/09/18 06:07:59;;;;;;;;;;;18.90;53.80;;;;;;5035946;28;19941;-61
2023/09/18 06:10:26;;;;;;;;;;;18.90;54.00;;;;;;5040133;28;19955;-61
2023/09/18 06:12:54;;;;;;;;;;;18.90;54.10;;;;;;5043071;28;20194;-62
2023/09/18 06:15:21;;;;;;;;;;;18.80;53.40;;;;;;5040750;28;19932;-65
2023/09/18 06:17:48;;;;;;;;;;;18.80;53.90;;;;;;5043288;28;20028;-60
2023/09/18 06:20:16;;;;;;;;;;;18.80;54.60;;;;;;5048370;28;20332;-62
2023/09/18 06:22:43;;;;;;;;;;;18.80;53.90;;;;;;5041364;28;20019;-62
2023/09/18 06:25:11;;;;;;;;;;;18.80;54.10;;;;;;5040418;28;20024;-61
2023/09/18 06:27:38;;;;;;;;;;;18.80;54.30;;;;;;5042513;28;19963;-61
2023/09/18 06:30:05;;;;;;;;;;;18.80;53.80;;;;;;5038882;28;20436;-63
2023/09/18 06:32:32;;;;;;;;;;;18.70;53.40;;;;;;5041392;28;19987;-61
2023/09/18 06:35:00;;;;;;;;;;;18.70;54.60;;;;;;5040211;28;20293;-60
2023/09/18 06:37:27;;;;;;;;;;;18.70;55.50;;;;;;5032977;28;19929;-60
2023/09/18 06:39:56;;;;;;;;;;;18.70;54.30;;;;;;5042424;28;20356;-62
2023/09/18 06:42:23;;;;;;;;;;;18.60;54.10;;;;;;5042509;28;19975;-62
2023/09/18 06:44:50;;;;;;;;;;;18.60;55.80;;;;;;5040800;28;19929;-63
2023/09/18 06:47:17;;;;;;;;;;;18.60;56.70;;;;;;5038196;28;19933;-62
2023/09/18 06:49:44;;;;;;;;;;;18.50;57.10;;;;;;5042292;28;20008;-65
2023/09/18 06:52:12;;;;;;;;;;;18.50;57.70;;;;;;5041298;28;20280;-65
2023/09/18 06:54:40;;;;;;;;;;;18.50;59.00;;;;;;5036776;28;19936;-64
2023/09/18 06:57:07;;;;;;;;;;;18.50;60.00;;;;;;5044126;28;19928;-63
2023/09/18 06:59:34;;;;;;;;;;;18.50;58.40;;;;;;5043544;28;19932;-66
2023/09/18 07:02:02;;;;;;;;;;;18.50;57.70;;;;;;5041685;28;19939;-63
2023/09/18 07:04:29;;;;;;;;;;;18.40;57.60;;;;;;5039527;28;19936;-64
2023/09/18 07:06:56;;;;;;;;;;;18.40;58.40;;;;;;5038049;28;20355;-64
2023/09/18 07:09:24;;;;;;;;;;;18.40;59.00;;;;;;5043256;28;19952;-64
2023/09/18 07:11:52;;;;;;;;;;;18.40;59.80;;;;;;5040834;28;20373;-65
2023/09/18 07:14:19;;;;;;;;;;;18.50;60.90;;;;;;5037918;28;19978;-63
2023/09/18 07:16:47;;;;;;;;;;;18.40;59.60;;;;;;5039670;28;19925;-64
2023/09/18 07:19:16;;;;;;;;;;;18.50;60.00;;;;;;5042087;28;19928;-63
2023/09/18 07:21:44;;;;;;;;;;;18.50;60.60;;;;;;5046018;28;19936;-66
2023/09/18 07:24:16;;;;;;;;;;;18.60;58.30;;;;;;5041264;28;19925;-62
2023/09/18 07:26:46;;;;;;;;;;;18.60;57.50;;;;;;5045955;28;19962;-61
2023/09/18 07:29:14;;;;;;;;;;;18.60;58.10;;;;;;5043095;28;19925;-61
2023/09/18 07:31:42;;;;;;;;;;;18.60;58.80;;;;;;5044358;28;19980;-65
2023/09/18 07:34:09;;;;;;;;;;;18.60;59.00;;;;;;5049394;28;19929;-63
2023/09/18 07:36:40;;;;;;;;;;;18.60;59.00;;;;;;5045752;28;19925;-65
2023/09/18 07:39:07;;;;;;;;;;;18.70;60.90;;;;;;5033939;28;20020;-62
2023/09/18 07:41:34;;;;;;;;;;;18.60;58.90;;;;;;5048168;28;20348;-64
2023/09/18 07:44:01;;;;;;;;;;;18.70;59.90;;;;;;5047589;28;20304;-64
2023/09/18 07:46:28;;;;;;;;;;;18.60;60.80;;;;;;5048951;28;20004;-63
2023/09/18 07:48:56;;;;;;;;;;;18.60;58.40;;;;;;5046040;28;20305;-64
2023/09/18 07:51:23;;;;;;;;;;;18.70;61.70;;;;;;5044011;28;20361;-63
2023/09/18 07:53:50;;;;;;;;;;;18.70;61.40;;;;;;5044272;28;19925;-64
2023/09/18 07:56:18;;;;;;;;;;;18.70;61.80;;;;;;5044576;28;20012;-62
2023/09/18 07:58:46;;;;;;;;;;;18.70;61.30;;;;;;5044058;28;19970;-62
2023/09/18 08:01:16;;;;;;;;;;;18.70;61.80;;;;;;5046844;28;19931;-62
2023/09/18 08:03:43;;;;;;;;;;;18.70;62.30;;;;;;5044903;28;20300;-65
2023/09/18 08:06:11;;;;;;;;;;;18.80;62.20;;;;;;5046320;28;19936;-66
2023/09/18 08:08:39;;;;;;;;;;;18.80;62.60;;;;;;5044767;28;19935;-65
2023/09/18 08:11:10;;;;;;;;;;;18.80;63.10;;;;;;5044229;28;19955;-64
2023/09/18 08:13:37;;;;;;;;;;;18.80;62.10;;;;;;5049178;28;19941;-61
2023/09/18 08:16:06;;;;;;;;;;;18.80;63.60;;;;;;5044303;28;19971;-65
2023/09/18 08:18:33;;;;;;;;;;;18.80;63.70;;;;;;5045545;28;19932;-68
2023/09/18 08:21:00;;;;;;;;;;;18.90;63.60;;;;;;5048801;28;19929;-68
2023/09/18 08:23:29;;;;;;;;;;;18.90;62.40;;;;;;5033594;28;19929;-67
2023/09/18 08:25:57;;;;;;;;;;;18.90;63.10;;;;;;5047682;28;19937;-63
2023/09/18 08:28:24;;;;;;;;;;;18.90;63.60;;;;;;5045540;28;19948;-62
2023/09/18 08:30:51;;;;;;;;;;;18.90;63.20;;;;;;5048504;28;19933;-64
2023/09/18 08:33:20;;;;;;;;;;;18.90;63.90;;;;;;5050041;28;20413;-63
2023/09/18 08:35:49;;;;;;;;;;;19.00;64.10;;;;;;5048216;28;19924;-63
2023/09/18 08:38:16;;;;;;;;;;;19.00;63.90;;;;;;5046090;28;19933;-63
2023/09/18 08:40:44;;;;;;;;;;;19.10;64.00;;;;;;5045774;28;19933;-64
2023/09/18 08:43:14;;;;;;;;;;;19.10;63.60;;;;;;5042979;28;19933;-63
2023/09/18 08:45:51;;;;;;;;;;;19.20;63.20;;;;;;5046088;28;20007;-63
2023/09/18 08:48:18;;;;;;;;;;;19.20;64.20;;;;;;5043233;28;19930;-62
2023/09/18 08:50:47;;;;;;;;;;;19.20;63.70;;;;;;5059172;28;19979;-64
2023/09/18 08:53:14;;;;;;;;;;;19.20;64.60;;;;;;5043338;28;19933;-61
2023/09/18 08:55:41;;;;;;;;;;;19.30;63.70;;;;;;5034471;28;21310;-62
2023/09/18 08:58:08;;;;;;;;;;;19.30;64.30;;;;;;5044724;28;19928;-63
2023/09/18 09:00:37;;;;;;;;;;;19.40;64.20;;;;;;5041314;28;20370;-62
2023/09/18 09:03:05;;;;;;;;;;;19.40;63.10;;;;;;5045559;28;19925;-61
2023/09/18 09:05:33;;;;;;;;;;;19.40;63.10;;;;;;5046320;28;20385;-63
2023/09/18 09:08:01;;;;;;;;;;;19.40;64.10;;;;;;5049654;28;20019;-62
2023/09/18 09:10:29;;;;;;;;;;;19.50;63.60;;;;;;5046186;28;20296;-62
2023/09/18 09:12:57;;;;;;;;;;;19.50;63.40;;;;;;5048899;28;19956;-62
2023/09/18 09:15:35;;;;;;;;;;;19.60;64.00;;;;;;5047892;28;19924;-62
2023/09/18 09:18:04;;;;;;;;;;;19.60;63.80;;;;;;5047454;28;20003;-62
2023/09/18 09:20:32;;;;;;;;;;;19.70;64.10;;;;;;5041446;28;19956;-62
2023/09/18 09:23:02;;;;;;;;;;;19.70;63.30;;;;;;5042897;28;19929;-62
2023/09/18 09:25:34;;;;;;;;;;;19.70;64.30;;;;;;5042916;28;20031;-65
2023/09/18 09:28:03;;;;;;;;;;;19.80;64.20;;;;;;5044220;28;19928;-61
2023/09/18 09:30:31;;;;;;;;;;;19.80;63.60;;;;;;5044109;28;19994;-62
2023/09/18 09:32:59;;;;;;;;;;;19.90;62.70;;;;;;5041482;28;19932;-60
2023/09/18 09:35:28;;;;;;;;;;;19.90;63.00;;;;;;5040950;28;20024;-62
2023/09/18 09:38:00;;;;;;;;;;;19.90;63.80;;;;;;5029434;28;19924;-63
2023/09/18 09:40:28;;;;;;;;;;;20.00;62.80;;;;;;5037759;28;19933;-63
2023/09/18 09:43:04;;;;;;;;;;;20.00;62.90;;;;;;5045836;28;19944;-63
2023/09/18 09:45:35;;;;;;;;;;;20.00;60.50;;;;;;5049132;28;19929;-64
2023/09/18 09:48:05;;;;;;;;;;;20.00;62.40;;;;;;5048968;28;19925;-63
2023/09/18 09:50:47;;;;;;;;;;;20.00;62.00;;;;;;5045852;28;19968;-63
2023/09/18 09:53:15;;;;;;;;;;;20.00;61.00;;;;;;5043892;28;20031;-62
2023/09/18 09:55:42;;;;;;;;;;;20.00;61.10;;;;;;5042034;28;19979;-61
2023/09/18 09:58:10;;;;;;;;;;;20.00;61.60;;;;;;5051324;28;19924;-62
2023/09/18 10:00:43;;;;;;;;;;;20.00;60.70;;;;;;5045063;28;19928;-65
2023/09/18 10:03:11;;;;;;;;;;;20.00;62.20;;;;;;5045281;28;19933;-62
2023/09/18 10:05:41;;;;;;;;;;;19.90;61.40;;;;;;5047327;28;19939;-62
2023/09/18 10:08:10;;;;;;;;;;;19.90;61.40;;;;;;5064042;28;19931;-62
2023/09/18 10:10:49;;;;;;;;;;;19.90;60.80;;;;;;5043922;28;19955;-62
2023/09/18 10:13:36;;;;;;;;;;;19.90;60.90;;;;;;5051731;28;20285;-63
2023/09/18 10:16:06;;;;;;;;;;;19.90;60.80;;;;;;5046649;28;19979;-63
2023/09/18 10:18:38;;;;;;;;;;;19.90;60.90;;;;;;5043339;28;20264;-61
2023/09/18 10:21:20;;;;;;;;;;;19.80;60.90;;;;;;5043789;28;19925;-63
2023/09/18 10:23:56;;;;;;;;;;;19.80;60.00;;;;;;5046031;28;20007;-63
2023/09/18 10:26:25;;;;;;;;;;;19.70;60.40;;;;;;5046971;28;20499;-63
2023/09/18 10:28:56;;;;;;;;;;;19.70;60.30;;;;;;5050458;28;19971;-64
2023/09/18 10:31:23;;;;;;;;;;;19.70;60.80;;;;;;5043264;28;20381;-63
2023/09/18 10:33:51;;;;;;;;;;;19.70;61.40;;;;;;5048836;28;20067;-63
2023/09/18 10:36:19;;;;;;;;;;;19.70;61.80;;;;;;5039285;28;19936;-62
2023/09/18 10:38:50;;;;;;;;;;;19.70;60.80;;;;;;5047327;28;20439;-65
2023/09/18 10:41:19;;;;;;;;;;;19.70;61.40;;;;;;5044614;28;19925;-63
2023/09/18 10:43:49;;;;;;;;;;;19.70;61.60;;;;;;5046829;28;19960;-62
2023/09/18 10:46:16;;;;;;;;;;;19.70;60.80;;;;;;5042108;28;19932;-62
2023/09/18 10:48:44;;;;;;;;;;;19.70;61.70;;;;;;5040610;28;20370;-61
2023/09/18 10:51:11;;;;;;;;;;;19.70;61.40;;;;;;5045151;28;19952;-61
2023/09/18 10:53:38;;;;;;;;;;;19.70;61.10;;;;;;5044457;28;19933;-62
2023/09/18 10:56:05;;;;;;;;;;;19.70;62.20;;;;;;5045354;28;19933;-62
2023/09/18 10:58:35;;;;;;;;;;;19.70;61.50;;;;;;5044253;28;19925;-63
2023/09/18 11:01:04;;;;;;;;;;;19.80;61.20;;;;;;5046027;28;20381;-63
2023/09/18 11:03:33;;;;;;;;;;;19.70;62.50;;;;;;5045331;28;20367;-62
2023/09/18 11:06:05;;;;;;;;;;;19.80;63.20;;;;;;5040038;28;19941;-65
2023/09/18 11:08:34;;;;;;;;;;;19.80;62.60;;;;;;5049338;28;20292;-60
2023/09/18 11:11:09;;;;;;;;;;;19.90;62.90;;;;;;5043165;28;20099;-61
2023/09/18 11:13:42;;;;;;;;;;;19.90;62.90;;;;;;5048389;28;19983;-61
2023/09/18 11:16:14;;;;;;;;;;;20.00;63.40;;;;;;5043829;28;19932;-62
2023/09/18 11:18:41;;;;;;;;;;;20.00;62.70;;;;;;5051311;28;19933;-62
2023/09/18 11:21:12;;;;;;;;;;;20.10;62.90;;;;;;5042977;28;20028;-62
2023/09/18 11:23:42;;;;;;;;;;;20.10;62.60;;;;;;5048755;28;19933;-61
2023/09/18 11:26:10;;;;;;;;;;;20.20;62.80;;;;;;5047885;28;19928;-63
2023/09/18 11:28:38;;;;;;;;;;;20.20;62.80;;;;;;5046015;28;19925;-62
2023/09/18 11:31:05;;;;;;;;;;;20.30;62.80;;;;;;5045786;28;19967;-61
2023/09/18 11:33:34;;;;;;;;;;;20.30;63.00;;;;;;5056176;28;19990;-60
2023/09/18 11:36:06;;;;;;;;;;;20.40;62.90;;;;;;5046831;28;19933;-60
2023/09/18 11:38:35;;;;;;;;;;;20.40;62.40;;;;;;5046067;28;19933;-62
2023/09/18 11:41:23;;;;;;;;;;;20.40;62.60;;;;;;5046102;28;19959;-60
2023/09/18 11:43:51;;;;;;;;;;;20.50;62.10;;;;;;5048803;28;19944;-63
2023/09/18 11:46:20;;;;;;;;;;;20.60;62.20;;;;;;5046924;28;19933;-61
2023/09/18 11:48:50;;;;;;;;;;;20.60;62.90;;;;;;5048242;28;20021;-62
2023/09/18 11:51:23;;;;;;;;;;;20.60;62.70;;;;;;5044083;28;19924;-65
2023/09/18 11:53:53;;;;;;;;;;;20.70;62.10;;;;;;5044120;28;20365;-62
2023/09/18 11:56:21;;;;;;;;;;;20.70;63.00;;;;;;5046050;28;20007;-65
2023/09/18 11:58:49;;;;;;;;;;;20.70;62.00;;;;;;5046457;28;19932;-61
2023/09/18 12:01:16;;;;;;;;;;;20.80;63.30;;;;;;5047467;28;19929;-63
2023/09/18 12:03:43;;;;;;;;;;;20.80;62.10;;;;;;5049014;28;19939;-63
2023/09/18 12:06:13;;;;;;;;;;;20.80;62.40;;;;;;5048139;28;19966;-62
2023/09/18 12:08:40;;;;;;;;;;;20.90;62.10;;;;;;5042681;28;19925;-63
2023/09/18 12:11:08;;;;;;;;;;;20.90;62.60;;;;;;5048060;28;19925;-63
2023/09/18 12:13:35;;;;;;;;;;;21.00;62.40;;;;;;5048057;28;19937;-63
2023/09/18 12:16:05;;;;;;;;;;;21.00;62.20;;;;;;5046589;28;20283;-63
2023/09/18 12:18:34;;;;;;;;;;;21.00;62.10;;;;;;5052645;28;19978;-62
2023/09/18 12:21:04;;;;;;;;;;;21.00;62.10;;;;;;5049533;28;19970;-63
2023/09/18 12:23:38;;;;;;;;;;;21.00;61.40;;;;;;5043524;28;19986;-62
2023/09/18 12:26:09;;;;;;;;;;;21.00;61.80;;;;;;5044739;28;20287;-62
2023/09/18 12:28:36;;;;;;;;;;;21.00;61.10;;;;;;5043904;28;20296;-62
2023/09/18 12:31:07;;;;;;;;;;;21.10;61.80;;;;;;5049197;28;19925;-66
2023/09/18 12:33:35;;;;;;;;;;;21.10;61.30;;;;;;5041315;28;19936;-63
2023/09/18 12:36:04;;;;;;;;;;;21.00;61.50;;;;;;5046587;28;20340;-62
2023/09/18 12:38:31;;;;;;;;;;;21.10;61.70;;;;;;5048752;28;20018;-62
2023/09/18 12:41:05;;;;;;;;;;;21.10;61.50;;;;;;5047603;28;19933;-62
2023/09/18 12:43:33;;;;;;;;;;;21.10;61.30;;;;;;5042354;28;19924;-62
2023/09/18 12:46:01;;;;;;;;;;;21.20;61.40;;;;;;5046710;28;19928;-61
2023/09/18 12:48:28;;;;;;;;;;;21.20;61.10;;;;;;5047908;28;19933;-62
2023/09/18 12:50:55;;;;;;;;;;;21.20;60.70;;;;;;5042831;28;19928;-62
2023/09/18 12:53:22;;;;;;;;;;;21.30;60.60;;;;;;5044560;28;19980;-64
2023/09/18 12:55:50;;;;;;;;;;;21.20;60.20;;;;;;5043996;28;19936;-60
2023/09/18 12:58:21;;;;;;;;;;;21.30;60.40;;;;;;5044491;28;19925;-61
2023/09/18 13:00:51;;;;;;;;;;;21.30;60.40;;;;;;5042378;28;19968;-61
2023/09/18 13:03:19;;;;;;;;;;;21.30;60.40;;;;;;5043127;28;19962;-61
2023/09/18 13:05:48;;;;;;;;;;;21.40;60.40;;;;;;5043441;28;19925;-61
2023/09/18 13:08:15;;;;;;;;;;;21.40;60.10;;;;;;5044286;28;19944;-62
2023/09/18 13:10:45;;;;;;;;;;;21.40;60.50;;;;;;5043000;28;19947;-63
2023/09/18 13:13:19;;;;;;;;;;;21.40;60.40;;;;;;5046284;28;19943;-64
2023/09/18 13:15:47;;;;;;;;;;;21.40;60.30;;;;;;5044095;28;19924;-63
2023/09/18 13:18:15;;;;;;;;;;;21.50;60.60;;;;;;5040600;28;20377;-61
2023/09/18 13:20:43;;;;;;;;;;;21.50;60.30;;;;;;5039644;28;20391;-62
2023/09/18 13:23:10;;;;;;;;;;;21.50;60.50;;;;;;5040877;28;20015;-63
2023/09/18 13:25:40;;;;;;;;;;;21.50;60.50;;;;;;5042545;28;19924;-62
2023/09/18 13:28:07;;;;;;;;;;;21.60;60.20;;;;;;5040255;28;20023;-62
2023/09/18 13:30:39;;;;;;;;;;;21.60;60.30;;;;;;5043843;28;19977;-63
2023/09/18 13:33:10;;;;;;;;;;;21.60;60.30;;;;;;5045886;28;20335;-62
2023/09/18 13:35:40;;;;;;;;;;;21.60;60.20;;;;;;5043999;28;20381;-61
2023/09/18 13:38:08;;;;;;;;;;;21.60;60.20;;;;;;5043523;28;19986;-63
2023/09/18 13:40:38;;;;;;;;;;;21.70;59.40;;;;;;5047004;28;19960;-64
2023/09/18 13:43:06;;;;;;;;;;;21.80;59.90;;;;;;5047048;28;20328;-64
2023/09/18 13:45:35;;;;;;;;;;;21.80;60.40;;;;;;5041098;28;19936;-65
2023/09/18 13:48:03;;;;;;;;;;;21.70;59.80;;;;;;5042103;28;20010;-63
2023/09/18 13:50:31;;;;;;;;;;;21.70;60.60;;;;;;5045337;28;20017;-62
2023/09/18 13:52:59;;;;;;;;;;;21.60;60.70;;;;;;5041967;28;19951;-65
2023/09/18 13:55:30;;;;;;;;;;;21.60;61.10;;;;;;5039131;28;19929;-63
2023/09/18 13:57:57;;;;;;;;;;;21.60;61.60;;;;;;5042736;28;19939;-63
2023/09/18 14:00:26;;;;;;;;;;;21.50;61.30;;;;;;5041560;28;19929;-63
2023/09/18 14:02:53;;;;;;;;;;;21.50;61.90;;;;;;5047615;28;20370;-63
2023/09/18 14:05:21;;;;;;;;;;;21.50;61.90;;;;;;5043956;28;19974;-64
2023/09/18 14:07:51;;;;;;;;;;;21.60;69.50;;;;;;5037341;28;20019;-63
2023/09/18 14:10:20;;;;;;;;;;;21.90;75.20;;;;;;5041643;28;19933;-64
2023/09/18 14:12:48;;;;;;;;;;;22.20;77.20;;;;;;5043650;28;19936;-63
2023/09/18 14:15:15;;;;;;;;;;;22.50;77.90;;;;;;5041492;28;19964;-61
2023/09/18 14:17:42;;;;;;;;;;;22.80;77.60;;;;;;5041433;28;19932;-63
2023/09/18 14:20:10;;;;;;;;;;;23.10;77.60;;;;;;5063785;28;19936;-62
2023/09/18 14:22:37;;;;;;;;;;;23.30;77.10;;;;;;5041310;28;19979;-63